Time;durP1;ratioP1;P1;durP2;ratioP2;P2;SDS_P1;SDS_P2;PMS_P1;PMS_P2;Temp;Humidity;BMP_temperature;BMP_pressure;BME280_temperature;BME280_humidity;BME280_pressure;Samples;Min_cycle;Max_cycle;Signal;HPM_P1;HPM_P2
2021/07/18 00:00:51;;;;;;;9.73;7.25;;;16.50;99.90;;;;;;5029659;28;20132;-63
2021/07/18 00:03:19;;;;;;;10.98;8.10;;;16.50;99.90;;;;;;5029615;28;20060;-60
2021/07/18 00:05:46;;;;;;;11.98;8.18;;;16.50;99.90;;;;;;5028906;28;20045;-60
2021/07/18 00:08:14;;;;;;;11.55;8.23;;;16.40;99.90;;;;;;5029478;28;20053;-60
2021/07/18 00:10:44;;;;;;;15.40;7.65;;;16.40;99.90;;;;;;5029213;28;20091;-62
2021/07/18 00:13:11;;;;;;;14.63;9.13;;;16.40;99.90;;;;;;5032307;28;20045;-62
2021/07/18 00:15:38;;;;;;;18.25;8.63;;;16.40;99.90;;;;;;5027735;28;20046;-62
2021/07/18 00:18:08;;;;;;;12.10;8.65;;;16.40;99.90;;;;;;5033342;28;20041;-61
2021/07/18 00:20:35;;;;;;;14.40;8.95;;;16.30;99.90;;;;;;5028807;28;20171;-59
2021/07/18 00:23:02;;;;;;;9.52;8.40;;;16.30;99.90;;;;;;5028413;28;20057;-57
2021/07/18 00:25:32;;;;;;;13.63;7.93;;;16.30;99.90;;;;;;5027923;28;20049;-61
2021/07/18 00:28:04;;;;;;;12.98;8.70;;;16.30;99.90;;;;;;5027701;28;20089;-62
2021/07/18 00:30:31;;;;;;;15.00;9.10;;;16.30;99.90;;;;;;5027874;28;20485;-59
2021/07/18 00:33:04;;;;;;;16.70;8.68;;;16.20;99.90;;;;;;5028056;28;20560;-60
2021/07/18 00:35:30;;;;;;;12.35;7.65;;;16.20;99.90;;;;;;5028467;28;20165;-61
2021/07/18 00:37:57;;;;;;;12.52;8.18;;;16.10;99.90;;;;;;5028205;28;20049;-59
2021/07/18 00:40:27;;;;;;;12.23;8.05;;;16.10;99.90;;;;;;5028925;28;20060;-57
2021/07/18 00:43:04;;;;;;;13.00;8.07;;;16.10;99.90;;;;;;5027789;28;20053;-60
2021/07/18 00:45:30;;;;;;;14.75;7.97;;;16.00;99.90;;;;;;5028187;28;20064;-59
2021/07/18 00:48:00;;;;;;;14.73;8.77;;;16.00;99.90;;;;;;5028598;28;20057;-55
2021/07/18 00:50:29;;;;;;;13.63;8.30;;;16.00;99.90;;;;;;5026936;28;20049;-61
2021/07/18 00:52:58;;;;;;;11.45;7.88;;;16.00;99.90;;;;;;5027815;28;20148;-62
2021/07/18 00:55:31;;;;;;;14.40;8.50;;;15.90;99.90;;;;;;5027425;28;20049;-61
2021/07/18 00:58:00;;;;;;;18.33;9.60;;;15.90;99.90;;;;;;5027726;28;20060;-62
2021/07/18 01:00:32;;;;;;;12.60;9.20;;;15.90;99.90;;;;;;5028118;28;20050;-59
2021/07/18 01:03:04;;;;;;;13.82;9.77;;;15.90;99.90;;;;;;5027690;28;20132;-62
2021/07/18 01:05:34;;;;;;;13.15;8.38;;;15.90;99.90;;;;;;5025580;28;20038;-62
2021/07/18 01:08:06;;;;;;;11.57;7.68;;;15.80;99.90;;;;;;5027915;28;20072;-63
2021/07/18 01:10:33;;;;;;;11.57;7.47;;;15.80;99.90;;;;;;5029008;28;20589;-60
2021/07/18 01:13:01;;;;;;;11.75;8.77;;;15.80;99.90;;;;;;5036601;28;20053;-59
2021/07/18 01:15:30;;;;;;;15.15;8.90;;;15.70;99.90;;;;;;5026443;28;20038;-60
2021/07/18 01:18:00;;;;;;;16.10;9.90;;;15.80;99.90;;;;;;5027491;28;20059;-62
2021/07/18 01:20:29;;;;;;;17.88;9.52;;;15.80;99.90;;;;;;5027478;28;20068;-56
2021/07/18 01:22:58;;;;;;;12.15;8.60;;;15.80;99.90;;;;;;5027742;28;20053;-62
2021/07/18 01:25:25;;;;;;;12.25;7.72;;;15.70;99.90;;;;;;5027583;28;20069;-62
2021/07/18 01:27:56;;;;;;;14.70;9.02;;;15.70;99.90;;;;;;5031435;28;20049;-62
2021/07/18 01:30:23;;;;;;;20.20;10.32;;;15.70;99.90;;;;;;5034071;28;20055;-60
2021/07/18 01:32:51;;;;;;;19.52;10.15;;;15.70;99.90;;;;;;5034890;28;20049;-62
2021/07/18 01:35:18;;;;;;;20.23;12.13;;;15.70;99.90;;;;;;5034021;28;20107;-63
2021/07/18 01:37:44;;;;;;;28.73;11.20;;;15.70;99.90;;;;;;5033717;28;20059;-61
2021/07/18 01:40:12;;;;;;;19.30;12.02;;;15.70;99.90;;;;;;5034148;28;20049;-62
2021/07/18 01:42:45;;;;;;;24.20;11.65;;;15.70;99.90;;;;;;5034184;28;20049;-61
2021/07/18 01:45:17;;;;;;;20.73;12.02;;;15.70;99.90;;;;;;5034099;28;20057;-62
2021/07/18 01:47:46;;;;;;;;;;;15.70;99.90;;;;;;5033987;28;20425;-59
2021/07/18 01:50:13;;;;;;;20.08;12.02;;;15.70;99.90;;;;;;5034256;28;20373;-60
2021/07/18 01:52:42;;;;;;;22.88;12.68;;;15.70;99.90;;;;;;5034503;28;20447;-59
2021/07/18 01:55:11;;;;;;;22.90;12.32;;;15.70;99.90;;;;;;5034086;28;20044;-57
2021/07/18 01:57:40;;;;;;;21.70;12.77;;;15.70;99.90;;;;;;5033379;28;20087;-61
2021/07/18 02:00:09;;;;;;;25.50;13.30;;;15.80;99.90;;;;;;5032536;28;20199;-61
2021/07/18 02:02:42;;;;;;;21.45;12.23;;;15.80;99.90;;;;;;5034313;28;20053;-59
2021/07/18 02:05:10;;;;;;;19.52;13.40;;;15.70;99.90;;;;;;5034131;28;20095;-61
2021/07/18 02:07:36;;;;;;;21.20;12.27;;;15.70;99.90;;;;;;5034425;28;20053;-60
2021/07/18 02:10:07;;;;;;;20.13;12.93;;;15.70;99.90;;;;;;5035279;28;20409;-61
2021/07/18 02:12:36;;;;;;;22.13;12.63;;;15.70;99.90;;;;;;5033465;28;20077;-62
2021/07/18 02:15:09;;;;;;;21.52;13.32;;;15.70;99.90;;;;;;5033786;28;20045;-60
2021/07/18 02:17:37;;;;;;;18.90;13.73;;;15.60;99.90;;;;;;5032232;28;20107;-61
2021/07/18 02:20:11;;;;;;;21.05;13.98;;;15.70;99.90;;;;;;5034580;28;20053;-57
2021/07/18 02:22:47;;;;;;;18.85;13.18;;;15.70;99.90;;;;;;5033841;28;20064;-61
2021/07/18 02:25:16;;;;;;;24.15;14.60;;;15.60;99.90;;;;;;5033561;28;20095;-59
2021/07/18 02:27:47;;;;;;;20.60;14.95;;;15.60;99.90;;;;;;5033238;28;20417;-60
2021/07/18 02:30:20;;;;;;;23.02;15.52;;;15.60;99.90;;;;;;5038410;28;20056;-59
2021/07/18 02:32:47;;;;;;;18.77;14.20;;;15.60;99.90;;;;;;5033539;28;20045;-60
2021/07/18 02:35:18;;;;;;;23.20;15.75;;;15.60;99.90;;;;;;5033875;28;20576;-58
2021/07/18 02:37:45;;;;;;;24.10;16.20;;;15.60;99.90;;;;;;5033831;28;20057;-60
2021/07/18 02:40:15;;;;;;;25.92;16.13;;;15.60;99.90;;;;;;5032965;28;20861;-61
2021/07/18 02:42:47;;;;;;;23.98;15.40;;;15.60;99.90;;;;;;5030691;28;20061;-59
2021/07/18 02:45:19;;;;;;;19.92;14.75;;;15.60;99.90;;;;;;5030559;28;20061;-62
2021/07/18 02:47:49;;;;;;;20.98;14.43;;;15.50;99.90;;;;;;5030720;28;20053;-62
2021/07/18 02:50:27;;;;;;;18.50;14.80;;;15.50;99.90;;;;;;5030574;28;20060;-62
2021/07/18 02:52:59;;;;;;;28.77;14.75;;;15.50;99.90;;;;;;5030174;28;20049;-62
2021/07/18 02:55:27;;;;;;;;;;;15.50;99.90;;;;;;5031367;28;20083;-62
2021/07/18 02:57:56;;;;;;;22.38;14.98;;;15.50;99.90;;;;;;5030712;28;20614;-58
2021/07/18 03:00:26;;;;;;;19.23;14.63;;;15.40;99.90;;;;;;5030747;28;20106;-59
2021/07/18 03:02:52;;;;;;;18.77;13.75;;;15.40;99.90;;;;;;5030870;28;20049;-58
2021/07/18 03:05:19;;;;;;;19.13;14.75;;;15.40;99.90;;;;;;5030469;28;20060;-57
2021/07/18 03:07:49;;;;;;;23.08;14.65;;;15.40;99.90;;;;;;5029609;28;20042;-57
2021/07/18 03:10:17;;;;;;;19.38;14.55;;;15.40;99.90;;;;;;5030175;28;20140;-58
2021/07/18 03:12:44;;;;;;;21.33;15.18;;;15.30;99.90;;;;;;5029682;28;20060;-57
2021/07/18 03:15:15;;;;;;;19.50;15.15;;;15.30;99.90;;;;;;5029709;28;20087;-58
2021/07/18 03:17:42;;;;;;;16.35;14.05;;;15.30;99.90;;;;;;5025703;28;20405;-57
2021/07/18 03:20:12;;;;;;;18.60;13.68;;;15.30;99.90;;;;;;5030191;28;20148;-57
2021/07/18 03:22:41;;;;;;;16.58;13.50;;;15.30;99.90;;;;;;5029518;28;20049;-57
2021/07/18 03:25:09;;;;;;;18.40;14.27;;;15.20;99.90;;;;;;5029410;28;20421;-57
2021/07/18 03:27:36;;;;;;;17.38;13.05;;;15.20;99.90;;;;;;5029455;28;20818;-58
2021/07/18 03:30:06;;;;;;;20.60;14.13;;;15.20;99.90;;;;;;5030100;28;20053;-59
2021/07/18 03:32:32;;;;;;;17.42;12.02;;;15.10;99.90;;;;;;5029652;28;20053;-57
2021/07/18 03:34:59;;;;;;;17.50;11.55;;;15.00;99.90;;;;;;5031197;28;20053;-58
2021/07/18 03:37:25;;;;;;;16.15;11.57;;;15.00;99.90;;;;;;5030391;28;20061;-56
2021/07/18 03:39:54;;;;;;;12.93;10.50;;;14.90;99.90;;;;;;5029766;28;20050;-57
2021/07/18 03:42:23;;;;;;;15.73;11.18;;;14.90;99.90;;;;;;5030075;28;20061;-57
2021/07/18 03:44:52;;;;;;;12.35;9.57;;;14.80;99.90;;;;;;5029353;28;20052;-57
2021/07/18 03:47:22;;;;;;;16.52;10.48;;;14.80;99.90;;;;;;5029463;28;20056;-58
2021/07/18 03:49:48;;;;;;;15.02;9.63;;;14.80;99.90;;;;;;5030147;28;20049;-56
2021/07/18 03:52:20;;;;;;;14.48;11.27;;;14.80;99.90;;;;;;5028461;28;20057;-57
2021/07/18 03:54:52;;;;;;;13.85;9.45;;;14.80;99.90;;;;;;5029892;28;20049;-58
2021/07/18 03:57:21;;;;;;;11.85;8.32;;;14.80;99.90;;;;;;5029282;28;20056;-56
2021/07/18 03:59:51;;;;;;;9.60;8.18;;;14.80;99.90;;;;;;5028830;28;20140;-56
2021/07/18 04:02:18;;;;;;;10.90;8.60;;;14.80;99.90;;;;;;5029357;28;20505;-57
2021/07/18 04:04:45;;;;;;;14.95;8.18;;;14.80;99.90;;;;;;5029237;28;20053;-57
2021/07/18 04:07:17;;;;;;;22.40;9.90;;;14.80;99.90;;;;;;5029101;28;20084;-57
2021/07/18 04:09:44;;;;;;;37.65;13.90;;;14.90;99.90;;;;;;5029058;28;20128;-57
2021/07/18 04:12:13;;;;;;;44.25;14.27;;;14.90;99.90;;;;;;5029249;28;20049;-57
2021/07/18 04:14:41;;;;;;;105.95;17.73;;;14.90;99.90;;;;;;5029270;28;20049;-58
2021/07/18 04:17:10;;;;;;;35.58;14.02;;;15.00;99.90;;;;;;5028704;28;20147;-55
2021/07/18 04:19:41;;;;;;;74.60;17.47;;;15.10;99.90;;;;;;5029199;28;20106;-56
2021/07/18 04:22:11;;;;;;;57.97;15.60;;;15.10;99.90;;;;;;5029205;28;20054;-56
2021/07/18 04:24:40;;;;;;;60.47;16.70;;;15.20;99.90;;;;;;5031701;28;20048;-57
2021/07/18 04:27:09;;;;;;;90.93;19.13;;;15.20;99.90;;;;;;5041506;28;20045;-56
2021/07/18 04:29:38;;;;;;;78.72;19.65;;;15.30;99.90;;;;;;5028512;28;20149;-55
2021/07/18 04:32:08;;;;;;;91.45;18.10;;;15.30;99.90;;;;;;5028700;28;20049;-55
2021/07/18 04:34:36;;;;;;;88.22;20.05;;;15.30;99.90;;;;;;5028229;28;20661;-56
2021/07/18 04:37:05;;;;;;;71.22;16.48;;;15.40;99.90;;;;;;5028423;28;20136;-53
2021/07/18 04:39:34;;;;;;;64.95;15.70;;;15.40;99.90;;;;;;5028269;28;20532;-55
2021/07/18 04:42:00;;;;;;;60.22;16.23;;;15.50;99.90;;;;;;5027256;28;20064;-55
2021/07/18 04:44:27;;;;;;;50.50;16.95;;;15.50;99.90;;;;;;5028506;28;20545;-56
2021/07/18 04:46:56;;;;;;;43.47;15.50;;;15.60;99.90;;;;;;5028864;28;20132;-57
2021/07/18 04:49:26;;;;;;;58.97;16.02;;;15.60;99.90;;;;;;5027660;28;20049;-56
2021/07/18 04:51:53;;;;;;;51.88;16.25;;;15.70;99.90;;;;;;5030292;28;20057;-56
2021/07/18 04:54:26;;;;;;;54.20;15.88;;;15.70;99.90;;;;;;5028778;28;20102;-55
2021/07/18 04:56:56;;;;;;;75.55;18.52;;;15.80;99.90;;;;;;5028739;28;20119;-57
2021/07/18 04:59:28;;;;;;;41.90;15.02;;;15.80;99.90;;;;;;5032294;28;20048;-57
2021/07/18 05:01:57;;;;;;;42.60;16.30;;;15.90;99.90;;;;;;5028820;28;20056;-56
2021/07/18 05:04:23;;;;;;;45.40;15.23;;;16.00;99.90;;;;;;5028458;28;20053;-56
2021/07/18 05:06:53;;;;;;;57.65;15.65;;;16.00;99.90;;;;;;5028230;28;20573;-52
2021/07/18 05:09:20;;;;;;;45.03;15.50;;;16.10;99.90;;;;;;5027694;28;20053;-55
2021/07/18 05:11:51;;;;;;;31.95;14.15;;;16.20;99.90;;;;;;5026661;28;20128;-55
2021/07/18 05:14:20;;;;;;;18.10;13.73;;;16.30;99.90;;;;;;5028478;28;20509;-50
2021/07/18 05:16:47;;;;;;;18.58;14.77;;;16.40;99.90;;;;;;5026110;28;20052;-50
2021/07/18 05:19:18;;;;;;;15.32;13.25;;;16.60;99.90;;;;;;5029824;28;20552;-49
2021/07/18 05:21:56;;;;;;;13.32;12.02;;;16.80;99.90;;;;;;5027584;28;20569;-51
2021/07/18 05:24:27;;;;;;;13.23;11.68;;;17.00;99.90;;;;;;5010832;28;20046;-50
2021/07/18 05:26:56;;;;;;;;;;;17.30;99.90;;;;;;5008381;28;20467;-52
2021/07/18 05:29:27;;;;;;;12.27;10.25;;;17.60;99.90;;;;;;5032763;28;19956;-53
2021/07/18 05:31:56;;;;;;;11.52;10.32;;;17.90;99.90;;;;;;5034064;28;20065;-51
2021/07/18 05:34:23;;;;;;;12.50;10.55;;;18.20;99.90;;;;;;5026887;28;20053;-52
2021/07/18 05:36:53;;;;;;;11.20;10.00;;;18.40;99.90;;;;;;5031233;28;20738;-52
2021/07/18 05:39:22;;;;;;;10.10;8.45;;;18.60;99.90;;;;;;5042865;28;20068;-51
2021/07/18 05:41:50;;;;;;;9.90;8.23;;;18.90;99.90;;;;;;5034379;28;20041;-54
2021/07/18 05:44:24;;;;;;;10.30;8.85;;;19.20;99.90;;;;;;5027879;28;20099;-55
2021/07/18 05:46:54;;;;;;;9.85;8.10;;;19.40;99.90;;;;;;5027681;28;20053;-55
2021/07/18 05:49:23;;;;;;;9.35;7.93;;;19.50;99.90;;;;;;5026950;28;20057;-47
2021/07/18 05:51:53;;;;;;;9.52;7.75;;;19.80;99.90;;;;;;5025756;28;20060;-55
2021/07/18 05:54:21;;;;;;;9.85;7.82;;;20.10;99.90;;;;;;5013212;28;20078;-54
2021/07/18 05:56:50;;;;;;;8.73;7.82;;;20.20;99.90;;;;;;5007518;28;20053;-52
2021/07/18 05:59:22;;;;;;;10.88;7.70;;;20.30;99.90;;;;;;5007540;28;20502;-55
2021/07/18 06:01:54;;;;;;;10.90;8.07;;;20.30;99.90;;;;;;5009796;28;20042;-57
2021/07/18 06:04:27;;;;;;;12.45;9.65;;;20.50;99.90;;;;;;5008922;28;20140;-53
2021/07/18 06:07:00;;;;;;;14.10;9.20;;;20.60;99.90;;;;;;5039783;28;20450;-55
2021/07/18 06:09:31;;;;;;;9.52;7.47;;;20.80;99.90;;;;;;5027184;28;20060;-56
2021/07/18 06:12:06;;;;;;;13.70;11.75;;;20.90;99.90;;;;;;5021480;28;20080;-53
2021/07/18 06:14:35;;;;;;;11.75;9.85;;;20.90;99.90;;;;;;5010074;28;20054;-56
2021/07/18 06:17:04;;;;;;;10.70;7.55;;;21.20;99.90;;;;;;5010372;28;20824;-54
2021/07/18 06:19:36;;;;;;;8.38;6.45;;;21.40;99.90;;;;;;5017667;28;20486;-54
2021/07/18 06:22:06;;;;;;;11.73;6.75;;;21.40;99.90;;;;;;5026366;28;20045;-55
2021/07/18 06:24:38;;;;;;;9.45;6.88;;;21.40;99.90;;;;;;5035641;28;20052;-56
2021/07/18 06:27:09;;;;;;;8.95;6.60;;;21.60;99.90;;;;;;5029313;28;20522;-55
2021/07/18 06:29:41;;;;;;;10.68;8.40;;;21.70;99.90;;;;;;5029928;28;20054;-49
2021/07/18 06:32:10;;;;;;;11.38;9.40;;;22.00;99.90;;;;;;5029746;28;20049;-55
2021/07/18 06:34:47;;;;;;;39.17;33.45;;;22.00;99.90;;;;;;5029711;28;20597;-53
2021/07/18 06:37:15;;;;;;;10.02;6.63;;;22.00;99.90;;;;;;5029880;28;20057;-56
2021/07/18 06:39:45;;;;;;;10.32;6.40;;;22.20;99.90;;;;;;5027935;28;20045;-56
2021/07/18 06:42:11;;;;;;;22.48;19.58;;;22.00;99.90;;;;;;5029164;28;20052;-55
2021/07/18 06:44:42;;;;;;;9.30;6.43;;;22.40;99.90;;;;;;5027555;28;20141;-56
2021/07/18 06:47:16;;;;;;;9.88;6.85;;;22.40;99.90;;;;;;5029505;28;20124;-56
2021/07/18 06:49:47;;;;;;;12.25;6.20;;;22.70;99.90;;;;;;5029508;28;20127;-56
2021/07/18 06:52:17;;;;;;;9.25;7.15;;;22.90;99.90;;;;;;5029298;28;20053;-56
2021/07/18 06:54:46;;;;;;;9.95;6.22;;;22.90;99.90;;;;;;5028090;28;20045;-57
2021/07/18 06:57:19;;;;;;;11.68;8.65;;;22.80;99.90;;;;;;5028872;28;20472;-57
2021/07/18 06:59:49;;;;;;;12.95;11.27;;;22.90;99.90;;;;;;5034258;28;20045;-58
2021/07/18 07:02:20;;;;;;;11.48;9.15;;;23.10;99.90;;;;;;5038473;28;20051;-59
2021/07/18 07:04:52;;;;;;;10.30;6.65;;;23.50;99.90;;;;;;5032837;28;20056;-57
2021/07/18 07:07:23;;;;;;;15.20;12.98;;;23.40;99.90;;;;;;5042496;28;20198;-60
2021/07/18 07:09:52;;;;;;;37.85;34.15;;;23.50;99.90;;;;;;5038095;28;20048;-59
2021/07/18 07:12:24;;;;;;;35.75;31.83;;;23.60;99.90;;;;;;5041811;28;20060;-57
2021/07/18 07:14:53;;;;;;;54.03;48.85;;;23.60;99.90;;;;;;5041726;28;20561;-58
2021/07/18 07:17:27;;;;;;;7.90;6.00;;;23.60;99.90;;;;;;5036474;28;20076;-57
2021/07/18 07:19:58;;;;;;;7.78;5.60;;;23.50;99.90;;;;;;5023959;28;20045;-59
2021/07/18 07:22:30;;;;;;;6.97;5.13;;;23.60;99.90;;;;;;5029255;28;20055;-59
2021/07/18 07:25:05;;;;;;;14.02;11.10;;;23.90;99.90;;;;;;5029190;28;20053;-61
2021/07/18 07:27:32;;;;;;;12.93;11.15;;;24.00;99.90;;;;;;5015324;28;20139;-60
2021/07/18 07:29:59;;;;;;;13.45;11.40;;;24.20;99.90;;;;;;5015754;28;20076;-60
2021/07/18 07:32:25;;;;;;;10.25;7.60;;;24.40;99.90;;;;;;5027120;28;20053;-60
2021/07/18 07:34:53;;;;;;;16.17;12.68;;;24.20;99.90;;;;;;5026277;28;20217;-59
2021/07/18 07:37:24;;;;;;;7.80;5.32;;;24.30;99.90;;;;;;5017418;28;20075;-59
2021/07/18 07:39:54;;;;;;;10.20;5.63;;;24.70;99.90;;;;;;5028355;28;20498;-60
2021/07/18 07:42:21;;;;;;;25.95;23.15;;;24.80;99.90;;;;;;5033125;28;20052;-61
2021/07/18 07:44:52;;;;;;;16.88;12.63;;;24.90;99.90;;;;;;5029211;28;20053;-61
2021/07/18 07:47:19;;;;;;;27.02;23.58;;;24.80;99.90;;;;;;5028167;28;20094;-58
2021/07/18 07:49:45;;;;;;;15.45;12.57;;;24.90;99.90;;;;;;5024441;28;20057;-60
2021/07/18 07:52:12;;;;;;;7.82;4.95;;;25.00;99.90;;;;;;5020194;28;20075;-60
2021/07/18 07:54:43;;;;;;;11.32;10.15;;;25.50;99.90;;;;;;5028454;28;20046;-60
2021/07/18 07:57:09;;;;;;;7.88;5.70;;;25.70;99.90;;;;;;5027514;28;20045;-60
2021/07/18 07:59:36;;;;;;;14.02;12.32;;;25.50;98.80;;;;;;5028396;28;20038;-61
2021/07/18 08:02:02;;;;;;;7.53;5.03;;;25.70;99.00;;;;;;5026313;28;20045;-61
2021/07/18 08:04:31;;;;;;;6.03;3.80;;;25.30;97.20;;;;;;5026988;28;20041;-60
2021/07/18 08:07:11;;;;;;;6.28;3.47;;;25.10;94.80;;;;;;5028247;28;20433;-61
2021/07/18 08:09:37;;;;;;;29.58;26.73;;;25.20;95.70;;;;;;5027715;28;20053;-61
2021/07/18 08:12:09;;;;;;;10.80;7.75;;;25.50;96.70;;;;;;5027798;28;20049;-58
2021/07/18 08:14:36;;;;;;;22.15;20.10;;;25.80;95.00;;;;;;5027087;28;20053;-60
2021/07/18 08:17:14;;;;;;;28.30;25.60;;;26.10;95.20;;;;;;5026645;28;20076;-60
2021/07/18 08:19:46;;;;;;;14.10;11.48;;;26.40;94.40;;;;;;5027909;28;20049;-58
2021/07/18 08:22:13;;;;;;;11.30;10.13;;;26.30;92.90;;;;;;5029098;28;20568;-60
2021/07/18 08:24:41;;;;;;;8.60;6.25;;;26.40;91.40;;;;;;5027359;28;20498;-60
2021/07/18 08:27:08;;;;;;;7.10;4.25;;;26.30;91.30;;;;;;5029672;28;20449;-59
2021/07/18 08:29:34;;;;;;;9.75;8.75;;;26.60;91.30;;;;;;5021908;28;20041;-59
2021/07/18 08:32:02;;;;;;;4.32;3.05;;;26.80;90.30;;;;;;5026727;28;20059;-60
2021/07/18 08:34:30;;;;;;;4.82;3.10;;;26.90;87.20;;;;;;5023404;28;20049;-59
2021/07/18 08:37:02;;;;;;;88.63;81.03;;;26.90;84.10;;;;;;5017258;28;20060;-60
2021/07/18 08:39:29;;;;;;;33.63;30.33;;;26.60;88.30;;;;;;5027420;28;20046;-60
2021/07/18 08:41:55;;;;;;;18.75;16.92;;;27.00;85.80;;;;;;5033384;28;20111;-59
2021/07/18 08:44:22;;;;;;;34.28;30.77;;;27.20;85.20;;;;;;5027477;28;20057;-60
2021/07/18 08:46:50;;;;;;;7.88;5.00;;;27.40;83.40;;;;;;5013355;28;20072;-58
2021/07/18 08:49:16;;;;;;;6.47;5.60;;;27.50;79.80;;;;;;5015079;28;20061;-59
2021/07/18 08:51:42;;;;;;;8.10;6.18;;;27.70;80.40;;;;;;5024314;28;20587;-58
2021/07/18 08:54:09;;;;;;;6.43;4.05;;;27.70;77.70;;;;;;5027531;28;20046;-56
2021/07/18 08:56:39;;;;;;;5.25;2.25;;;28.00;75.80;;;;;;5024852;28;20053;-60
2021/07/18 08:59:07;;;;;;;5.88;2.63;;;27.90;74.80;;;;;;5020562;28;20056;-60
2021/07/18 09:01:34;;;;;;;6.07;3.47;;;28.20;73.90;;;;;;5025777;28;20661;-60
2021/07/18 09:04:01;;;;;;;7.97;6.30;;;27.80;74.30;;;;;;5027566;28;20131;-59
2021/07/18 09:06:41;;;;;;;6.57;4.28;;;28.20;74.70;;;;;;5033023;28;20065;-59
2021/07/18 09:09:13;;;;;;;4.70;3.05;;;28.50;72.20;;;;;;5027072;28;20049;-60
2021/07/18 09:11:39;;;;;;;5.80;3.92;;;28.70;70.70;;;;;;5027510;28;20080;-59
2021/07/18 09:14:07;;;;;;;6.95;3.17;;;28.60;70.90;;;;;;5025899;28;20517;-59
2021/07/18 09:16:39;;;;;;;9.18;6.22;;;28.50;70.00;;;;;;5026782;28;20468;-61
2021/07/18 09:19:31;;;;;;;4.78;2.78;;;29.10;68.70;;;;;;5026895;28;20064;-59
2021/07/18 09:21:58;;;;;;;4.55;2.17;;;28.90;67.70;;;;;;5027527;28;20088;-59
2021/07/18 09:24:27;;;;;;;5.03;2.63;;;29.10;69.80;;;;;;5027202;28;20516;-59
2021/07/18 09:27:24;;;;;;;12.73;10.23;;;29.20;66.70;;;;;;5025211;28;20244;-59
2021/07/18 09:29:54;;;;;;;3.92;2.58;;;29.10;66.10;;;;;;5027446;28;20058;-55
2021/07/18 09:32:25;;;;;;;5.78;3.50;;;29.30;68.80;;;;;;5026519;28;20557;-58
2021/07/18 09:34:55;;;;;;;6.18;3.17;;;29.40;65.30;;;;;;5027214;28;20057;-54
2021/07/18 09:37:25;;;;;;;7.88;3.58;;;29.30;64.90;;;;;;5030480;28;20508;-52
2021/07/18 09:39:58;;;;;;;5.10;2.33;;;29.10;64.30;;;;;;5020186;28;20065;-52
2021/07/18 09:43:01;;;;;;;4.93;2.78;;;29.40;65.00;;;;;;5025711;28;20130;-56
2021/07/18 09:45:30;;;;;;;10.07;8.20;;;29.90;63.20;;;;;;5003766;28;20073;-55
2021/07/18 09:48:14;;;;;;;4.72;2.47;;;29.90;62.40;;;;;;5004423;28;20495;-48
2021/07/18 09:50:44;;;;;;;6.55;3.97;;;29.70;63.10;;;;;;5008171;28;20061;-56
2021/07/18 09:53:19;;;;;;;5.72;2.22;;;29.90;64.70;;;;;;5007631;28;20522;-52
2021/07/18 09:55:54;;;;;;;7.55;4.97;;;30.20;63.80;;;;;;5008576;28;20514;-53
2021/07/18 09:58:21;;;;;;;5.90;2.20;;;29.90;62.10;;;;;;4995437;28;20463;-54
2021/07/18 10:00:50;;;;;;;3.15;1.48;;;29.80;62.60;;;;;;4988489;28;20062;-54
2021/07/18 10:03:22;;;;;;;3.60;2.40;;;30.20;60.40;;;;;;4988884;28;20070;-52
2021/07/18 10:06:11;;;;;;;3.47;1.67;;;29.70;59.60;;;;;;5007640;28;20145;-50
2021/07/18 10:08:43;;;;;;;24.00;21.73;;;29.50;59.90;;;;;;5007706;28;20224;-55
2021/07/18 10:11:12;;;;;;;17.65;16.08;;;29.80;60.60;;;;;;5013982;28;20471;-50
2021/07/18 10:13:39;;;;;;;4.35;2.55;;;30.10;61.10;;;;;;5020449;28;20049;-52
2021/07/18 10:16:07;;;;;;;7.65;5.28;;;29.90;60.50;;;;;;5008609;28;20042;-51
2021/07/18 10:18:36;;;;;;;4.25;2.20;;;30.00;61.30;;;;;;5011308;28;20580;-50
2021/07/18 10:21:03;;;;;;;4.35;2.47;;;29.30;60.10;;;;;;5012123;28;20045;-54
2021/07/18 10:23:34;;;;;;;3.22;1.67;;;29.30;61.40;;;;;;5029949;28;20573;-52
2021/07/18 10:26:02;;;;;;;;;;;29.80;60.80;;;;;;5031437;28;20054;-52
2021/07/18 10:28:29;;;;;;;2.75;1.67;;;30.20;59.20;;;;;;5032155;28;19931;-52
2021/07/18 10:31:04;;;;;;;4.68;1.98;;;30.60;58.60;;;;;;5048394;28;20048;-54
2021/07/18 10:33:36;;;;;;;7.25;3.50;;;31.20;57.80;;;;;;5033593;28;20046;-53
2021/07/18 10:36:03;;;;;;;3.63;2.80;;;31.30;57.00;;;;;;5029504;28;21500;-53
2021/07/18 10:38:37;;;;;;;3.40;1.42;;;30.60;56.60;;;;;;5030100;28;20076;-54
2021/07/18 10:41:03;;;;;;;1.95;1.63;;;30.50;56.50;;;;;;5030215;28;20139;-52
2021/07/18 10:43:46;;;;;;;3.03;1.80;;;30.80;58.10;;;;;;5029365;28;20426;-50
2021/07/18 10:46:35;;;;;;;4.40;1.95;;;30.80;57.50;;;;;;5032597;28;20457;-54
2021/07/18 10:49:05;;;;;;;4.87;1.87;;;31.10;57.40;;;;;;5028709;28;20092;-57
2021/07/18 10:51:35;;;;;;;7.47;5.38;;;31.30;56.30;;;;;;5034676;28;20327;-52
2021/07/18 10:54:17;;;;;;;5.25;1.77;;;31.40;56.90;;;;;;5034306;28;20056;-55
2021/07/18 10:56:49;;;;;;;6.10;3.35;;;31.20;56.00;;;;;;5030051;28;20045;-49
2021/07/18 10:59:42;;;;;;;4.68;2.30;;;31.30;55.50;;;;;;5030715;28;20092;-54
2021/07/18 11:02:14;;;;;;;4.15;2.97;;;30.80;56.20;;;;;;5026877;28;20052;-52
2021/07/18 11:04:40;;;;;;;5.20;1.70;;;30.80;56.60;;;;;;5028316;28;20068;-55
2021/07/18 11:07:21;;;;;;;3.28;2.25;;;31.00;55.40;;;;;;5029199;28;20476;-52
2021/07/18 11:09:52;;;;;;;2.42;1.48;;;31.70;54.40;;;;;;5029807;28;20164;-51
2021/07/18 11:12:22;;;;;;;6.35;5.43;;;30.90;53.60;;;;;;5028767;28;20449;-53
2021/07/18 11:14:50;;;;;;;2.03;1.60;;;30.80;55.20;;;;;;5028989;28;20045;-52
2021/07/18 11:17:30;;;;;;;3.88;1.98;;;31.10;55.10;;;;;;5028734;28;20395;-50
2021/07/18 11:19:57;;;;;;;3.45;1.92;;;30.60;53.80;;;;;;5032469;28;20048;-52
2021/07/18 11:22:54;;;;;;;4.07;3.00;;;30.40;54.80;;;;;;5029057;28;20052;-55
2021/07/18 11:26:08;;;;;;;3.95;1.88;;;30.10;55.30;;;;;;5031809;28;20053;-47
2021/07/18 11:31:18;;;;;;;4.93;3.27;;;30.60;56.60;;;;;;4992130;28;20058;-49
2021/07/18 11:33:44;;;;;;;4.15;1.73;;;30.40;56.80;;;;;;4989404;28;20134;-55
2021/07/18 11:36:21;;;;;;;3.40;2.10;;;30.70;57.30;;;;;;4997740;28;20870;-48
2021/07/18 11:38:51;;;;;;;3.13;1.67;;;30.70;55.00;;;;;;4986733;28;20054;-51
2021/07/18 11:41:22;;;;;;;3.17;1.85;;;31.10;55.80;;;;;;4986841;28;20090;-49
2021/07/18 11:43:50;;;;;;;5.22;1.75;;;30.60;54.60;;;;;;4987194;28;20147;-50
2021/07/18 11:46:21;;;;;;;4.65;1.73;;;30.60;54.60;;;;;;4995931;28;20447;-51
2021/07/18 11:48:49;;;;;;;2.97;1.60;;;30.60;54.70;;;;;;4987337;28;20053;-53
2021/07/18 11:51:22;;;;;;;4.25;1.60;;;30.60;55.90;;;;;;4986907;28;20042;-53
2021/07/18 11:53:54;;;;;;;2.58;1.45;;;30.50;54.90;;;;;;4987153;28;20094;-51
2021/07/18 11:56:30;;;;;;;2.53;1.35;;;30.40;54.00;;;;;;4986477;28;20101;-53
2021/07/18 11:59:13;;;;;;;4.55;1.73;;;30.90;53.80;;;;;;4986640;28;20172;-51
2021/07/18 12:01:42;;;;;;;3.10;1.58;;;30.00;54.10;;;;;;4986294;28;20112;-52
2021/07/18 12:04:10;;;;;;;2.72;2.05;;;29.70;55.20;;;;;;4977131;28;20140;-51
2021/07/18 12:06:38;;;;;;;4.07;1.90;;;30.40;55.80;;;;;;5028231;28;20050;-50
2021/07/18 12:09:21;;;;;;;9.27;7.43;;;30.50;54.30;;;;;;5030150;28;20049;-50
2021/07/18 12:11:55;;;;;;;3.47;2.40;;;31.00;51.80;;;;;;5027436;28;20053;-56
2021/07/18 12:14:27;;;;;;;5.20;3.33;;;30.90;53.50;;;;;;5033468;28;20140;-56
2021/07/18 12:16:58;;;;;;;7.82;3.53;;;30.90;53.00;;;;;;5028483;28;20049;-57
2021/07/18 12:19:27;;;;;;;6.05;4.07;;;30.90;53.80;;;;;;5034793;28;20143;-57
2021/07/18 12:21:58;;;;;;;4.95;2.72;;;31.00;54.80;;;;;;5028431;28;20049;-55
2021/07/18 12:24:31;;;;;;;5.30;3.03;;;30.10;54.70;;;;;;5027891;28;20139;-57
2021/07/18 12:27:04;;;;;;;3.67;1.50;;;30.50;56.20;;;;;;5027353;28;20057;-57
2021/07/18 12:29:44;;;;;;;4.57;2.20;;;30.20;55.50;;;;;;5028119;28;20045;-56
2021/07/18 12:32:16;;;;;;;3.93;1.80;;;30.50;57.10;;;;;;5034512;28;20486;-56
2021/07/18 12:34:49;;;;;;;4.97;2.63;;;30.70;56.40;;;;;;5026980;28;20057;-57
2021/07/18 12:37:22;;;;;;;3.45;1.67;;;31.10;54.90;;;;;;5022999;28;20196;-56
2021/07/18 12:40:00;;;;;;;5.63;2.33;;;31.40;54.40;;;;;;5026711;28;20053;-51
2021/07/18 12:42:30;;;;;;;6.53;4.90;;;31.30;52.80;;;;;;5031039;28;20048;-51
2021/07/18 12:45:15;;;;;;;4.93;3.08;;;31.10;53.30;;;;;;5025859;28;20037;-51
2021/07/18 12:47:45;;;;;;;6.40;3.50;;;30.90;54.10;;;;;;5033700;28;20797;-50
2021/07/18 12:50:31;;;;;;;3.30;1.67;;;30.30;54.80;;;;;;5028351;28;20208;-54
2021/07/18 12:53:02;;;;;;;4.05;2.03;;;30.30;56.00;;;;;;5028140;28;20081;-52
2021/07/18 12:55:57;;;;;;;2.92;2.00;;;30.60;55.70;;;;;;5028638;28;20409;-46
2021/07/18 12:58:36;;;;;;;6.18;4.95;;;30.80;53.30;;;;;;5022681;28;20471;-47